Time;durP1;ratioP1;P1;durP2;ratioP2;P2;SDS_P1;SDS_P2;PMS_P1;PMS_P2;Temp;Humidity;BMP_temperature;BMP_pressure;BME280_temperature;BME280_humidity;BME280_pressure;Samples;Min_cycle;Max_cycle;Signal;HPM_P1;HPM_P2
2021/09/21 00:02:11;;;;;;;2.83;1.90;;;;;;;;;;5119571;28;20213;-63
2021/09/21 00:04:39;;;;;;;3.23;2.17;;;;;;;;;;5120140;27;20308;-62
2021/09/21 00:07:07;;;;;;;3.80;2.10;;;;;;;;;;5119952;28;20296;-62
2021/09/21 00:09:37;;;;;;;2.43;2.23;;;;;;;;;;5116699;27;20276;-63
2021/09/21 00:12:05;;;;;;;2.00;1.90;;;;;;;;;;5119456;27;20201;-64
2021/09/21 00:14:33;;;;;;;2.20;2.00;;;;;;;;;;5119658;28;20252;-61
2021/09/21 00:17:02;;;;;;;3.20;2.00;;;;;;;;;;5119203;28;20201;-62
2021/09/21 00:19:32;;;;;;;3.20;2.30;;;;;;;;;;5119792;28;20220;-61
2021/09/21 00:22:00;;;;;;;2.63;2.27;;;;;;;;;;5119585;28;20683;-61
2021/09/21 00:24:28;;;;;;;2.40;2.20;;;;;;;;;;5119364;28;20270;-61
2021/09/21 00:26:58;;;;;;;2.30;2.10;;;;;;;;;;5119855;28;20201;-60
2021/09/21 00:29:27;;;;;;;2.50;2.30;;;;;;;;;;5120283;28;20276;-62
2021/09/21 00:31:59;;;;;;;3.33;2.10;;;;;;;;;;5117829;28;20542;-62
2021/09/21 00:34:37;;;;;;;3.63;2.20;;;;;;;;;;5119603;28;20296;-62
2021/09/21 00:37:05;;;;;;;2.57;2.30;;;;;;;;;;5119797;28;20205;-61
2021/09/21 00:39:33;;;;;;;2.10;1.90;;;;;;;;;;5119701;28;20311;-62
2021/09/21 00:42:03;;;;;;;3.40;2.03;;;;;;;;;;5119760;28;20213;-62
2021/09/21 00:44:31;;;;;;;2.73;2.20;;;;;;;;;;5119409;28;20225;-62
2021/09/21 00:46:58;;;;;;;4.50;2.13;;;;;;;;;;5119040;28;20211;-62
2021/09/21 00:49:26;;;;;;;2.23;2.13;;;;;;;;;;5119353;28;20228;-62
2021/09/21 00:51:54;;;;;;;1.83;1.70;;;;;;;;;;5119641;28;20208;-62
2021/09/21 00:54:23;;;;;;;2.93;1.63;;;;;;;;;;5119172;28;20225;-62
2021/09/21 00:56:51;;;;;;;1.40;1.30;;;;;;;;;;5119293;28;20291;-62
2021/09/21 00:59:20;;;;;;;2.17;1.70;;;;;;;;;;5119207;28;20220;-62
2021/09/21 01:01:49;;;;;;;1.73;1.63;;;;;;;;;;5118830;28;20209;-61
2021/09/21 01:04:17;;;;;;;1.97;1.60;;;;;;;;;;5118733;28;20783;-62
2021/09/21 01:06:45;;;;;;;1.50;1.40;;;;;;;;;;5118562;28;20246;-62
2021/09/21 01:09:17;;;;;;;2.10;1.73;;;;;;;;;;5119225;28;20207;-62
2021/09/21 01:11:46;;;;;;;1.43;1.40;;;;;;;;;;5119382;28;20209;-62
2021/09/21 01:14:14;;;;;;;1.97;1.77;;;;;;;;;;5118578;28;20225;-62
2021/09/21 01:16:43;;;;;;;3.27;1.57;;;;;;;;;;5118558;28;20211;-62
2021/09/21 01:19:12;;;;;;;2.37;1.47;;;;;;;;;;5118545;28;20235;-62
2021/09/21 01:21:41;;;;;;;1.53;1.43;;;;;;;;;;5118800;28;20201;-62
2021/09/21 01:24:10;;;;;;;1.20;1.20;;;;;;;;;;5118315;28;20596;-62
2021/09/21 01:26:38;;;;;;;1.63;1.50;;;;;;;;;;5118734;28;20203;-61
2021/09/21 01:29:06;;;;;;;1.77;1.67;;;;;;;;;;5118949;28;20197;-61
2021/09/21 01:31:34;;;;;;;2.50;2.30;;;;;;;;;;5118282;28;20209;-61
2021/09/21 01:34:02;;;;;;;2.10;1.50;;;;;;;;;;5118622;28;20228;-61
2021/09/21 01:36:31;;;;;;;2.60;1.80;;;;;;;;;;5118731;28;20289;-61
2021/09/21 01:39:00;;;;;;;1.90;1.70;;;;;;;;;;5118544;28;20228;-61
2021/09/21 01:41:28;;;;;;;1.77;1.67;;;;;;;;;;5118109;28;20208;-61
2021/09/21 01:43:56;;;;;;;2.20;2.00;;;;;;;;;;5118411;28;20234;-60
2021/09/21 01:46:25;;;;;;;2.27;1.70;;;;;;;;;;5118214;28;20207;-60
2021/09/21 01:48:53;;;;;;;3.37;2.17;;;;;;;;;;5118154;28;20200;-61
2021/09/21 01:51:28;;;;;;;3.60;2.07;;;;;;;;;;5136043;27;20264;-60
2021/09/21 01:54:10;;;;;;;3.37;2.57;;;;;;;;;;5138614;27;20224;-61
2021/09/21 01:59:25;;;;;;;2.67;2.47;;;;;;;;;;5108075;27;20231;-60
2021/09/21 02:01:53;;;;;;;2.83;2.53;;;;;;;;;;5118026;28;20205;-61
2021/09/21 02:04:22;;;;;;;2.93;2.13;;;;;;;;;;5117853;28;20639;-60
2021/09/21 02:06:51;;;;;;;3.93;2.37;;;;;;;;;;5117956;28;20319;-60
2021/09/21 02:09:19;;;;;;;2.50;1.93;;;;;;;;;;5118160;28;20280;-61
2021/09/21 02:11:49;;;;;;;2.80;2.60;;;;;;;;;;5118274;28;20359;-61
2021/09/21 02:14:18;;;;;;;5.37;2.70;;;;;;;;;;5118217;28;20224;-62
2021/09/21 02:16:47;;;;;;;2.77;2.57;;;;;;;;;;5117858;28;20236;-62
2021/09/21 02:19:15;;;;;;;3.07;2.77;;;;;;;;;;5120527;28;20228;-62
2021/09/21 02:21:43;;;;;;;3.17;2.80;;;;;;;;;;5122263;28;20201;-62
2021/09/21 02:24:11;;;;;;;3.40;3.07;;;;;;;;;;5121894;28;20231;-62
2021/09/21 02:26:39;;;;;;;3.27;2.47;;;;;;;;;;5122293;28;20211;-62
2021/09/21 02:29:10;;;;;;;2.80;2.60;;;;;;;;;;5122301;28;20205;-62
2021/09/21 02:31:38;;;;;;;4.20;2.83;;;;;;;;;;5121768;28;20200;-62
2021/09/21 02:34:06;;;;;;;2.70;2.50;;;;;;;;;;5122147;28;20228;-62
2021/09/21 02:36:40;;;;;;;3.37;3.07;;;;;;;;;;5122049;27;20205;-62
2021/09/21 02:39:08;;;;;;;3.00;2.67;;;;;;;;;;5121810;28;20656;-62
2021/09/21 02:41:36;;;;;;;4.03;2.70;;;;;;;;;;5122032;28;20204;-62
2021/09/21 02:44:04;;;;;;;3.03;2.77;;;;;;;;;;5121538;28;20235;-62
2021/09/21 02:46:34;;;;;;;3.30;3.00;;;;;;;;;;5121347;28;20583;-62
2021/09/21 02:49:02;;;;;;;4.83;2.67;;;;;;;;;;5121834;28;20202;-62
2021/09/21 02:51:30;;;;;;;3.30;3.00;;;;;;;;;;5121835;28;20200;-62
2021/09/21 02:53:58;;;;;;;3.43;3.13;;;;;;;;;;5121518;28;20235;-63
2021/09/21 02:56:26;;;;;;;4.40;3.03;;;;;;;;;;5121551;28;20284;-60
2021/09/21 02:58:54;;;;;;;3.73;3.03;;;;;;;;;;5121621;28;20209;-62
2021/09/21 03:01:22;;;;;;;3.03;2.67;;;;;;;;;;5121189;28;20229;-62
2021/09/21 03:03:54;;;;;;;3.63;2.70;;;;;;;;;;5121422;28;20307;-62
2021/09/21 03:06:23;;;;;;;4.43;2.93;;;;;;;;;;5121375;28;20606;-61
2021/09/21 03:08:55;;;;;;;3.57;2.70;;;;;;;;;;5121284;28;20298;-61
2021/09/21 03:11:26;;;;;;;3.13;2.73;;;;;;;;;;5121519;28;20263;-62
2021/09/21 03:17:07;;;;;;;4.03;3.13;;;;;;;;;;5121132;28;20307;-62
2021/09/21 03:19:36;;;;;;;4.90;3.20;;;;;;;;;;5105194;27;20238;-60
2021/09/21 03:22:04;;;;;;;3.10;2.80;;;;;;;;;;5121161;28;20268;-62
2021/09/21 03:24:33;;;;;;;3.57;3.20;;;;;;;;;;5120978;28;20579;-62
2021/09/21 03:27:01;;;;;;;3.57;3.00;;;;;;;;;;5121032;28;20211;-62
2021/09/21 03:29:29;;;;;;;3.60;3.27;;;;;;;;;;5120556;28;20209;-62
2021/09/21 03:31:57;;;;;;;3.83;3.53;;;;;;;;;;5120754;28;20283;-62
2021/09/21 03:34:25;;;;;;;5.93;4.20;;;;;;;;;;5120904;27;20288;-62
2021/09/21 03:36:54;;;;;;;5.97;4.00;;;;;;;;;;5121019;28;20208;-62
2021/09/21 03:39:22;;;;;;;5.50;3.97;;;;;;;;;;5120583;28;20600;-62
2021/09/21 03:41:51;;;;;;;7.43;4.67;;;;;;;;;;5120764;28;20232;-62
2021/09/21 03:44:19;;;;;;;5.13;4.13;;;;;;;;;;5120472;28;20787;-62
2021/09/21 03:46:47;;;;;;;5.13;4.30;;;;;;;;;;5119964;28;20209;-62
2021/09/21 03:49:15;;;;;;;6.63;4.60;;;;;;;;;;5120234;28;20575;-62
2021/09/21 03:51:43;;;;;;;4.67;4.27;;;;;;;;;;5120804;28;20201;-62
2021/09/21 03:54:12;;;;;;;4.97;4.50;;;;;;;;;;5120110;27;20228;-62
2021/09/21 03:56:40;;;;;;;5.30;4.47;;;;;;;;;;5120236;28;20223;-60
2021/09/21 03:59:09;;;;;;;5.40;4.83;;;;;;;;;;5120377;28;20211;-62
2021/09/21 04:01:36;;;;;;;5.80;4.83;;;;;;;;;;5119882;28;20308;-61
2021/09/21 04:04:05;;;;;;;5.90;4.40;;;;;;;;;;5120188;27;20227;-62
2021/09/21 04:06:34;;;;;;;5.13;4.57;;;;;;;;;;5120057;28;20607;-62
2021/09/21 04:09:02;;;;;;;5.07;4.57;;;;;;;;;;5120203;28;20228;-62
2021/09/21 04:11:31;;;;;;;6.97;4.80;;;;;;;;;;5120355;28;20201;-62
2021/09/21 04:14:01;;;;;;;5.23;4.73;;;;;;;;;;5119827;28;20274;-62
2021/09/21 04:16:30;;;;;;;7.27;4.40;;;;;;;;;;5119348;28;20200;-62
2021/09/21 04:18:58;;;;;;;4.93;4.43;;;;;;;;;;5119677;28;20215;-62
2021/09/21 04:21:26;;;;;;;5.40;4.90;;;;;;;;;;5119969;28;20221;-60
2021/09/21 04:23:54;;;;;;;6.50;4.50;;;;;;;;;;5119771;27;20233;-62
2021/09/21 04:26:22;;;;;;;6.77;5.40;;;;;;;;;;5119963;28;20272;-61
2021/09/21 04:28:52;;;;;;;5.27;4.47;;;;;;;;;;5119876;28;20205;-62
2021/09/21 04:31:23;;;;;;;4.83;4.33;;;;;;;;;;5119162;28;20205;-62
2021/09/21 04:33:52;;;;;;;4.77;4.27;;;;;;;;;;5119476;28;20231;-61
2021/09/21 04:36:20;;;;;;;6.33;4.63;;;;;;;;;;5119591;28;20205;-61
2021/09/21 04:38:48;;;;;;;8.43;4.57;;;;;;;;;;5119531;28;20219;-63
2021/09/21 04:41:16;;;;;;;5.13;4.33;;;;;;;;;;5118250;28;20224;-61
2021/09/21 04:43:44;;;;;;;4.33;3.93;;;;;;;;;;5119564;28;20211;-62
2021/09/21 04:46:14;;;;;;;5.93;4.43;;;;;;;;;;5118776;28;20284;-62
2021/09/21 04:48:42;;;;;;;5.17;4.67;;;;;;;;;;5119340;28;20671;-61
2021/09/21 04:51:10;;;;;;;5.63;5.07;;;;;;;;;;5119121;28;20208;-62
2021/09/21 04:53:38;;;;;;;4.83;4.30;;;;;;;;;;5119374;28;20219;-62
2021/09/21 04:56:06;;;;;;;6.60;5.00;;;;;;;;;;5119312;28;20216;-61
2021/09/21 04:58:34;;;;;;;9.57;7.50;;;;;;;;;;5118890;28;20211;-61
2021/09/21 05:01:02;;;;;;;9.10;5.13;;;;;;;;;;5118779;28;20230;-61
2021/09/21 05:03:32;;;;;;;7.23;4.70;;;;;;;;;;5119118;27;20208;-62
2021/09/21 05:06:00;;;;;;;8.37;4.60;;;;;;;;;;5118832;28;20237;-62
2021/09/21 05:08:28;;;;;;;7.50;5.13;;;;;;;;;;5119210;28;20292;-62
2021/09/21 05:10:56;;;;;;;6.27;4.97;;;;;;;;;;5119114;28;20215;-61
2021/09/21 05:13:26;;;;;;;4.77;4.37;;;;;;;;;;5118739;28;20258;-59
2021/09/21 05:15:53;;;;;;;5.17;4.67;;;;;;;;;;5118367;28;20212;-62
2021/09/21 05:18:22;;;;;;;5.67;5.07;;;;;;;;;;5118553;28;20204;-62
2021/09/21 05:20:51;;;;;;;6.00;4.73;;;;;;;;;;5118700;28;20225;-62
2021/09/21 05:23:19;;;;;;;5.57;4.90;;;;;;;;;;5118845;28;20219;-62
2021/09/21 05:25:47;;;;;;;5.53;4.93;;;;;;;;;;5118784;27;20220;-62
2021/09/21 05:28:15;;;;;;;6.77;4.70;;;;;;;;;;5118683;28;20205;-62
2021/09/21 05:30:43;;;;;;;7.07;5.30;;;;;;;;;;5118250;28;20200;-61
2021/09/21 05:33:11;;;;;;;6.07;5.07;;;;;;;;;;5118686;28;20217;-61
2021/09/21 05:35:39;;;;;;;5.53;4.87;;;;;;;;;;5118485;28;20221;-60
2021/09/21 05:38:08;;;;;;;5.20;4.70;;;;;;;;;;5118584;28;20219;-61
2021/09/21 05:40:36;;;;;;;5.80;5.20;;;;;;;;;;5118501;28;20287;-61
2021/09/21 05:43:04;;;;;;;8.10;5.00;;;;;;;;;;5118516;28;20665;-61
2021/09/21 05:45:32;;;;;;;7.50;5.47;;;;;;;;;;5117932;28;20599;-61
2021/09/21 05:48:01;;;;;;;9.60;5.47;;;;;;;;;;5118059;28;20321;-61
2021/09/21 05:50:29;;;;;;;5.47;4.70;;;;;;;;;;5118294;28;20211;-63
2021/09/21 05:52:57;;;;;;;5.83;4.87;;;;;;;;;;5117746;28;20207;-63
2021/09/21 05:55:28;;;;;;;5.77;4.40;;;;;;;;;;5118060;28;20221;-62
2021/09/21 05:57:56;;;;;;;5.33;4.83;;;;;;;;;;5118142;28;20287;-63
2021/09/21 06:00:24;;;;;;;6.77;5.30;;;;;;;;;;5117919;28;20872;-63
2021/09/21 06:02:53;;;;;;;5.90;5.03;;;;;;;;;;5117737;28;20212;-62
2021/09/21 06:05:22;;;;;;;7.63;5.10;;;;;;;;;;5118061;28;20231;-62
2021/09/21 06:07:50;;;;;;;5.83;4.87;;;;;;;;;;5117934;28;20244;-61
2021/09/21 06:10:19;;;;;;;5.70;4.40;;;;;;;;;;5118086;28;20205;-61
2021/09/21 06:12:49;;;;;;;5.20;4.70;;;;;;;;;;5117890;28;20232;-61
2021/09/21 06:15:19;;;;;;;7.23;5.27;;;;;;;;;;5117363;28;20225;-61
2021/09/21 06:17:47;;;;;;;6.00;4.87;;;;;;;;;;5117944;28;20292;-61
2021/09/21 06:20:16;;;;;;;7.23;4.97;;;;;;;;;;5117868;28;20236;-61
2021/09/21 06:22:44;;;;;;;6.90;4.50;;;;;;;;;;5118023;28;20228;-62
2021/09/21 06:25:13;;;;;;;7.13;4.67;;;;;;;;;;5117969;28;20288;-62
2021/09/21 06:27:41;;;;;;;7.80;5.27;;;;;;;;;;5118039;28;20205;-63
2021/09/21 06:30:13;;;;;;;5.57;4.57;;;;;;;;;;5117568;28;20207;-62
2021/09/21 06:32:41;;;;;;;5.70;4.33;;;;;;;;;;5117912;28;20200;-62
2021/09/21 06:35:10;;;;;;;6.27;4.60;;;;;;;;;;5117904;28;20232;-62
2021/09/21 06:37:38;;;;;;;8.17;4.97;;;;;;;;;;5117726;28;20288;-61
2021/09/21 06:40:07;;;;;;;7.47;5.00;;;;;;;;;;5117712;28;20205;-63
2021/09/21 06:42:36;;;;;;;6.50;4.80;;;;;;;;;;5117981;28;20221;-61
2021/09/21 06:45:05;;;;;;;6.67;4.77;;;;;;;;;;5117217;28;20228;-61
2021/09/21 06:47:34;;;;;;;5.67;5.07;;;;;;;;;;5117621;28;20204;-61
2021/09/21 06:50:02;;;;;;;7.07;5.70;;;;;;;;;;5117346;28;20211;-61
2021/09/21 06:52:31;;;;;;;5.67;4.50;;;;;;;;;;5117760;28;20205;-61
2021/09/21 06:54:59;;;;;;;7.60;4.67;;;;;;;;;;5117900;28;20220;-62
2021/09/21 06:57:27;;;;;;;8.73;6.03;;;;;;;;;;5117383;28;20213;-61
2021/09/21 06:59:57;;;;;;;6.10;5.20;;;;;;;;;;5117803;28;20240;-62
2021/09/21 07:02:25;;;;;;;6.30;4.87;;;;;;;;;;5117290;28;20595;-61
2021/09/21 07:04:54;;;;;;;5.07;4.40;;;;;;;;;;5119040;28;20231;-61
2021/09/21 07:07:22;;;;;;;5.17;4.67;;;;;;;;;;5121176;28;20661;-63
2021/09/21 07:09:50;;;;;;;5.70;4.40;;;;;;;;;;5121618;28;20211;-61
2021/09/21 07:12:18;;;;;;;8.73;5.00;;;;;;;;;;5121025;28;20207;-61
2021/09/21 07:14:46;;;;;;;6.23;5.00;;;;;;;;;;5121132;28;20327;-61
2021/09/21 07:17:14;;;;;;;6.43;4.90;;;;;;;;;;5120734;28;20564;-61
2021/09/21 07:19:42;;;;;;;6.63;4.60;;;;;;;;;;5121186;28;20215;-60
2021/09/21 07:22:11;;;;;;;6.13;5.30;;;;;;;;;;5121015;28;20587;-60
2021/09/21 07:24:39;;;;;;;7.90;5.00;;;;;;;;;;5120953;28;20234;-61
2021/09/21 07:27:07;;;;;;;6.90;4.90;;;;;;;;;;5120700;28;20686;-61
2021/09/21 07:29:36;;;;;;;5.93;4.33;;;;;;;;;;5120847;28;20205;-61
2021/09/21 07:32:04;;;;;;;4.67;4.03;;;;;;;;;;5120562;28;20196;-61
2021/09/21 07:34:32;;;;;;;4.93;3.93;;;;;;;;;;5120842;28;20316;-61
2021/09/21 07:37:00;;;;;;;5.37;4.10;;;;;;;;;;5121079;28;20215;-62
2021/09/21 07:39:29;;;;;;;10.03;3.80;;;;;;;;;;5120545;28;20601;-61
2021/09/21 07:41:57;;;;;;;4.13;3.73;;;;;;;;;;5120684;28;20204;-61
2021/09/21 07:44:25;;;;;;;5.33;4.03;;;;;;;;;;5120577;28;20315;-61
2021/09/21 07:46:53;;;;;;;5.07;4.17;;;;;;;;;;5120350;28;20207;-61
2021/09/21 07:49:21;;;;;;;5.43;3.93;;;;;;;;;;5120250;28;20678;-62
2021/09/21 07:51:49;;;;;;;4.33;3.73;;;;;;;;;;5120674;28;20215;-60
2021/09/21 07:54:17;;;;;;;5.93;4.53;;;;;;;;;;5120433;28;20227;-62
2021/09/21 07:56:47;;;;;;;5.80;4.43;;;;;;;;;;5120246;27;20216;-62
2021/09/21 07:59:15;;;;;;;6.73;4.27;;;;;;;;;;5120437;28;20204;-62
2021/09/21 08:01:43;;;;;;;4.67;3.90;;;;;;;;;;5120133;28;20291;-61
2021/09/21 08:04:11;;;;;;;4.93;4.07;;;;;;;;;;5120240;28;20309;-62
2021/09/21 08:06:40;;;;;;;5.37;4.53;;;;;;;;;;5119917;27;20264;-62
2021/09/21 08:09:08;;;;;;;5.77;4.20;;;;;;;;;;5120194;28;20207;-62
2021/09/21 08:11:36;;;;;;;4.27;3.77;;;;;;;;;;5120469;28;20224;-62
2021/09/21 08:14:06;;;;;;;5.00;4.17;;;;;;;;;;5119812;28;20710;-62
2021/09/21 08:16:34;;;;;;;4.83;3.90;;;;;;;;;;5119578;28;20544;-62
2021/09/21 08:19:03;;;;;;;4.47;3.80;;;;;;;;;;5119720;28;20231;-62
2021/09/21 08:21:31;;;;;;;4.93;4.37;;;;;;;;;;5120011;28;20205;-62
2021/09/21 08:23:58;;;;;;;6.77;4.77;;;;;;;;;;5119816;28;20312;-62
2021/09/21 08:26:26;;;;;;;4.90;4.43;;;;;;;;;;5119763;28;20243;-62
2021/09/21 08:28:54;;;;;;;7.13;4.10;;;;;;;;;;5119931;28;20213;-62
2021/09/21 08:31:24;;;;;;;12.50;4.23;;;;;;;;;;5119335;28;20215;-62
2021/09/21 08:33:52;;;;;;;4.80;4.13;;;;;;;;;;5119649;28;20261;-62
2021/09/21 08:36:23;;;;;;;10.67;4.33;;;;;;;;;;5119747;28;20212;-62
2021/09/21 08:38:51;;;;;;;5.03;3.60;;;;;;;;;;5119693;28;20232;-62
2021/09/21 08:41:19;;;;;;;5.60;4.43;;;;;;;;;;5119560;28;20207;-62
2021/09/21 08:43:47;;;;;;;6.33;4.30;;;;;;;;;;5119373;28;20235;-62
2021/09/21 08:46:16;;;;;;;4.80;4.13;;;;;;;;;;5118461;28;20602;-60
2021/09/21 08:48:45;;;;;;;4.47;3.83;;;;;;;;;;5119156;28;20217;-60
2021/09/21 08:51:13;;;;;;;5.27;4.30;;;;;;;;;;5118747;28;20333;-62
2021/09/21 08:53:41;;;;;;;4.77;3.80;;;;;;;;;;5119126;28;20283;-62
2021/09/21 08:56:09;;;;;;;5.80;4.10;;;;;;;;;;5119155;27;20205;-62
2021/09/21 08:58:37;;;;;;;4.43;4.03;;;;;;;;;;5118848;28;20211;-62
2021/09/21 09:01:12;;;;;;;10.83;4.90;;;;;;;;;;5118728;28;20209;-62
2021/09/21 09:03:40;;;;;;;5.47;4.23;;;;;;;;;;5118965;28;20227;-62
2021/09/21 09:06:10;;;;;;;7.53;4.60;;;;;;;;;;5118747;28;20240;-62
2021/09/21 09:08:38;;;;;;;5.30;4.47;;;;;;;;;;5118804;28;20227;-62
2021/09/21 09:11:14;;;;;;;7.27;4.87;;;;;;;;;;5118870;28;20230;-61
2021/09/21 09:13:43;;;;;;;5.47;4.40;;;;;;;;;;5118807;28;20200;-61
2021/09/21 09:16:13;;;;;;;5.33;3.90;;;;;;;;;;5118688;28;20292;-61
2021/09/21 09:18:41;;;;;;;8.13;4.27;;;;;;;;;;5118986;28;20240;-61
2021/09/21 09:21:11;;;;;;;5.13;4.47;;;;;;;;;;5118609;28;20621;-61
2021/09/21 09:23:49;;;;;;;4.80;4.30;;;;;;;;;;5118578;28;20227;-62
2021/09/21 09:26:21;;;;;;;6.00;4.97;;;;;;;;;;5118507;28;20200;-61
2021/09/21 09:28:50;;;;;;;6.60;4.87;;;;;;;;;;5118200;28;20288;-61
2021/09/21 09:31:28;;;;;;;5.90;4.57;;;;;;;;;;5118378;28;20209;-61
2021/09/21 09:34:10;;;;;;;6.73;4.43;;;;;;;;;;5118718;28;20227;-61
2021/09/21 09:36:57;;;;;;;6.60;4.90;;;;;;;;;;5118334;28;20201;-61
2021/09/21 09:39:29;;;;;;;6.00;4.67;;;;;;;;;;5118552;28;20215;-61
2021/09/21 09:41:57;;;;;;;5.53;4.90;;;;;;;;;;5118319;28;20243;-60
2021/09/21 09:44:26;;;;;;;6.93;4.97;;;;;;;;;;5118143;28;20229;-61
2021/09/21 09:46:55;;;;;;;6.20;4.03;;;;;;;;;;5117741;28;20690;-63
2021/09/21 09:49:24;;;;;;;4.33;3.83;;;;;;;;;;5118448;28;20292;-63
2021/09/21 09:51:53;;;;;;;7.00;4.53;;;;;;;;;;5118486;28;20200;-63
2021/09/21 09:54:21;;;;;;;4.17;3.63;;;;;;;;;;5118304;28;20233;-63
2021/09/21 09:56:51;;;;;;;4.57;3.43;;;;;;;;;;5118438;28;20215;-61
2021/09/21 09:59:20;;;;;;;3.37;3.07;;;;;;;;;;5118238;28;20288;-61
2021/09/21 10:01:48;;;;;;;6.00;3.67;;;;;;;;;;5117956;28;20284;-60
2021/09/21 10:04:16;;;;;;;4.77;3.40;;;;;;;;;;5118238;28;20220;-60
2021/09/21 10:06:45;;;;;;;4.80;4.10;;;;;;;;;;5117899;28;20264;-61
2021/09/21 10:09:17;;;;;;;4.33;3.63;;;;;;;;;;5118282;28;20207;-61
2021/09/21 10:11:45;;;;;;;4.13;3.63;;;;;;;;;;5118273;28;20211;-61
2021/09/21 10:14:15;;;;;;;3.87;3.47;;;;;;;;;;5118195;28;20308;-63
2021/09/21 10:16:46;;;;;;;7.67;3.90;;;;;;;;;;5117455;28;20205;-63
2021/09/21 10:19:18;;;;;;;3.97;3.57;;;;;;;;;;5117813;28;20699;-63
2021/09/21 10:21:47;;;;;;;5.27;3.73;;;;;;;;;;5118124;28;20288;-63
2021/09/21 10:24:15;;;;;;;3.63;3.23;;;;;;;;;;5117596;28;20251;-62
2021/09/21 10:26:43;;;;;;;4.17;3.50;;;;;;;;;;5117765;28;20571;-61
2021/09/21 10:29:13;;;;;;;4.37;3.43;;;;;;;;;;5118226;28;20205;-61
2021/09/21 10:31:42;;;;;;;4.27;3.67;;;;;;;;;;5117587;28;20208;-61
2021/09/21 10:34:12;;;;;;;4.20;3.47;;;;;;;;;;5117657;28;20311;-62
2021/09/21 10:36:47;;;;;;;4.20;3.27;;;;;;;;;;5118030;28;20211;-62
2021/09/21 10:39:16;;;;;;;6.93;3.77;;;;;;;;;;5118085;28;20216;-62
2021/09/21 10:41:48;;;;;;;4.90;3.77;;;;;;;;;;5121628;28;20204;-62
2021/09/21 10:44:16;;;;;;;4.53;3.97;;;;;;;;;;5121744;28;20228;-62
2021/09/21 10:46:47;;;;;;;4.17;3.77;;;;;;;;;;5107922;28;20216;-62
2021/09/21 10:49:23;;;;;;;4.33;3.80;;;;;;;;;;5121795;28;20209;-62
2021/09/21 10:51:51;;;;;;;6.43;3.57;;;;;;;;;;5121892;28;20264;-62
2021/09/21 10:54:28;;;;;;;4.20;3.80;;;;;;;;;;5121631;28;20223;-62
2021/09/21 10:57:04;;;;;;;9.00;4.27;;;;;;;;;;5121997;28;20204;-62
2021/09/21 10:59:32;;;;;;;5.33;3.63;;;;;;;;;;5121383;27;20204;-62
2021/09/21 11:02:04;;;;;;;6.57;3.90;;;;;;;;;;5121347;28;20286;-62
2021/09/21 11:04:40;;;;;;;4.80;4.00;;;;;;;;;;5108151;28;20320;-63
2021/09/21 11:07:08;;;;;;;5.80;4.57;;;;;;;;;;5121082;28;20236;-62
2021/09/21 11:09:36;;;;;;;5.13;3.63;;;;;;;;;;5121495;28;20258;-62
2021/09/21 11:12:05;;;;;;;5.63;3.67;;;;;;;;;;5121583;27;20205;-62
2021/09/21 11:14:35;;;;;;;3.40;3.10;;;;;;;;;;5121394;28;20688;-61
2021/09/21 11:17:04;;;;;;;5.03;4.07;;;;;;;;;;5120948;27;20223;-62
2021/09/21 11:19:33;;;;;;;3.93;3.40;;;;;;;;;;5121040;28;20204;-62
2021/09/21 11:22:02;;;;;;;4.37;3.80;;;;;;;;;;5121141;28;20205;-62
2021/09/21 11:24:30;;;;;;;4.07;3.53;;;;;;;;;;5120976;28;20225;-62
2021/09/21 11:26:59;;;;;;;5.17;3.63;;;;;;;;;;5121245;28;20342;-62
2021/09/21 11:29:28;;;;;;;4.27;3.63;;;;;;;;;;5121204;28;20264;-62
2021/09/21 11:31:57;;;;;;;5.70;4.27;;;;;;;;;;5120599;28;20212;-62
2021/09/21 11:34:31;;;;;;;4.20;3.80;;;;;;;;;;5120852;27;20255;-62
2021/09/21 11:37:02;;;;;;;4.83;3.60;;;;;;;;;;5121019;28;20208;-62
2021/09/21 11:39:30;;;;;;;6.57;3.50;;;;;;;;;;5121464;28;20283;-62
2021/09/21 11:41:58;;;;;;;6.50;3.70;;;;;;;;;;5121055;28;20215;-62
2021/09/21 11:44:36;;;;;;;4.20;3.80;;;;;;;;;;5120766;28;20347;-62
2021/09/21 11:47:04;;;;;;;4.60;3.30;;;;;;;;;;5120595;27;20200;-62
2021/09/21 11:49:34;;;;;;;6.93;3.77;;;;;;;;;;5120484;28;20557;-62
2021/09/21 11:52:03;;;;;;;4.67;3.80;;;;;;;;;;5120072;28;20209;-62
2021/09/21 11:54:33;;;;;;;3.93;3.53;;;;;;;;;;5120515;28;20224;-62
2021/09/21 11:57:01;;;;;;;9.13;5.40;;;;;;;;;;5120650;28;20201;-62
2021/09/21 11:59:29;;;;;;;6.43;4.77;;;;;;;;;;5120420;28;20292;-62
2021/09/21 12:01:58;;;;;;;4.17;3.33;;;;;;;;;;5120278;28;20292;-62
2021/09/21 12:04:26;;;;;;;5.53;3.70;;;;;;;;;;5119803;28;20266;-62
2021/09/21 12:06:55;;;;;;;6.67;3.80;;;;;;;;;;5120053;28;20264;-62
2021/09/21 12:09:23;;;;;;;4.30;3.10;;;;;;;;;;5119937;28;20582;-62
2021/09/21 12:11:51;;;;;;;4.13;3.23;;;;;;;;;;5120120;28;20211;-62
2021/09/21 12:14:19;;;;;;;3.77;3.47;;;;;;;;;;5119906;28;20590;-62
2021/09/21 12:16:51;;;;;;;3.50;3.20;;;;;;;;;;5119400;28;20621;-62
2021/09/21 12:19:19;;;;;;;3.30;3.00;;;;;;;;;;5119896;28;20236;-62
2021/09/21 12:21:48;;;;;;;3.80;3.30;;;;;;;;;;5119907;28;20236;-61
2021/09/21 12:24:17;;;;;;;3.30;3.00;;;;;;;;;;5119589;28;20220;-62
2021/09/21 12:26:45;;;;;;;6.37;4.10;;;;;;;;;;5120024;28;20215;-62
2021/09/21 12:29:20;;;;;;;4.30;3.73;;;;;;;;;;5116588;28;20244;-62
2021/09/21 12:31:48;;;;;;;3.43;3.13;;;;;;;;;;5119377;28;20232;-62
2021/09/21 12:34:16;;;;;;;4.07;3.67;;;;;;;;;;5119215;28;20252;-62
2021/09/21 12:36:48;;;;;;;4.10;3.40;;;;;;;;;;5119348;28;20678;-62
2021/09/21 12:39:18;;;;;;;5.07;3.40;;;;;;;;;;5119536;28;20237;-62
2021/09/21 12:41:46;;;;;;;4.03;3.33;;;;;;;;;;5119326;27;20205;-62
2021/09/21 12:44:16;;;;;;;3.80;3.27;;;;;;;;;;5113490;28;20225;-62
2021/09/21 12:46:45;;;;;;;4.53;3.47;;;;;;;;;;5118721;28;20221;-62
2021/09/21 12:49:14;;;;;;;3.93;3.50;;;;;;;;;;5118626;28;20224;-62
2021/09/21 12:51:44;;;;;;;4.13;3.40;;;;;;;;;;5119151;28;20284;-62
2021/09/21 12:54:13;;;;;;;4.73;3.83;;;;;;;;;;5118775;28;20751;-62
2021/09/21 12:56:46;;;;;;;4.13;3.73;;;;;;;;;;5119117;28;20540;-62
2021/09/21 12:59:15;;;;;;;4.93;3.40;;;;;;;;;;5119068;28;20205;-62
2021/09/21 13:01:43;;;;;;;5.77;3.37;;;;;;;;;;5118227;28;20207;-62
2021/09/21 13:04:29;;;;;;;3.70;3.33;;;;;;;;;;5119156;28;20225;-62
2021/09/21 13:06:57;;;;;;;3.17;2.90;;;;;;;;;;5118761;28;20244;-62
2021/09/21 13:09:25;;;;;;;4.73;3.60;;;;;;;;;;5119342;28;20215;-62
2021/09/21 13:11:58;;;;;;;6.20;2.87;;;;;;;;;;5118916;28;20213;-62
2021/09/21 13:14:26;;;;;;;3.83;2.90;;;;;;;;;;5118818;28;20717;-62
2021/09/21 13:16:54;;;;;;;3.83;2.73;;;;;;;;;;5118280;28;20255;-62
2021/09/21 13:19:22;;;;;;;4.93;2.90;;;;;;;;;;5118889;28;20205;-62
2021/09/21 13:21:51;;;;;;;3.40;3.10;;;;;;;;;;5118805;28;20728;-62
2021/09/21 13:24:19;;;;;;;3.70;3.23;;;;;;;;;;5118627;28;20231;-62
2021/09/21 13:26:47;;;;;;;5.67;2.97;;;;;;;;;;5118565;28;20235;-62
2021/09/21 13:29:17;;;;;;;3.37;3.07;;;;;;;;;;5118831;28;20229;-62
2021/09/21 13:31:45;;;;;;;3.83;3.53;;;;;;;;;;5117942;28;20238;-62
2021/09/21 13:34:13;;;;;;;3.87;3.20;;;;;;;;;;5118589;28;20228;-62
2021/09/21 13:36:43;;;;;;;3.57;2.80;;;;;;;;;;5118711;28;20201;-62
2021/09/21 13:39:11;;;;;;;3.80;3.40;;;;;;;;;;5118387;28;20272;-62
2021/09/21 13:41:40;;;;;;;5.30;3.40;;;;;;;;;;5118334;28;20751;-61
2021/09/21 13:44:09;;;;;;;3.57;3.20;;;;;;;;;;5118458;28;20228;-62
2021/09/21 13:46:38;;;;;;;4.77;3.03;;;;;;;;;;5118048;28;20316;-62
2021/09/21 13:49:06;;;;;;;3.80;3.50;;;;;;;;;;5118033;28;20660;-62
2021/09/21 13:51:34;;;;;;;3.30;2.83;;;;;;;;;;5118297;28;20287;-62
2021/09/21 13:54:02;;;;;;;3.33;3.03;;;;;;;;;;5118190;28;20229;-62
2021/09/21 13:56:30;;;;;;;3.50;3.00;;;;;;;;;;5118363;28;20299;-62
2021/09/21 13:59:00;;;;;;;4.17;2.87;;;;;;;;;;5118025;28;20209;-62
2021/09/21 14:01:28;;;;;;;5.07;3.30;;;;;;;;;;5117629;28;20715;-62
2021/09/21 14:03:58;;;;;;;3.30;3.00;;;;;;;;;;5117798;28;20620;-62
2021/09/21 14:06:26;;;;;;;3.03;2.77;;;;;;;;;;5118034;28;20272;-62
2021/09/21 14:08:54;;;;;;;3.77;2.83;;;;;;;;;;5117861;28;20636;-62
2021/09/21 14:11:22;;;;;;;4.73;2.60;;;;;;;;;;5118434;28;20240;-62
2021/09/21 14:13:50;;;;;;;4.17;3.77;;;;;;;;;;5120808;28;20585;-62
2021/09/21 14:16:18;;;;;;;3.20;2.60;;;;;;;;;;5124767;27;20260;-62
2021/09/21 14:18:46;;;;;;;2.90;2.63;;;;;;;;;;5124777;27;20204;-62
2021/09/21 14:21:16;;;;;;;2.70;2.50;;;;;;;;;;5124884;27;20619;-62
2021/09/21 14:23:44;;;;;;;5.03;3.37;;;;;;;;;;5124695;27;20204;-62
2021/09/21 14:26:12;;;;;;;2.67;2.37;;;;;;;;;;5124867;27;20220;-62
2021/09/21 14:28:42;;;;;;;2.50;2.30;;;;;;;;;;5124806;27;20200;-62
2021/09/21 14:31:10;;;;;;;2.50;2.30;;;;;;;;;;5124410;27;20211;-62
2021/09/21 14:33:38;;;;;;;3.40;3.10;;;;;;;;;;5124548;27;20197;-62
2021/09/21 14:36:06;;;;;;;3.10;2.80;;;;;;;;;;5124653;27;20704;-62
2021/09/21 14:38:35;;;;;;;2.90;2.70;;;;;;;;;;5124607;27;20287;-62
2021/09/21 14:41:04;;;;;;;3.73;2.67;;;;;;;;;;5124512;27;20291;-62
2021/09/21 14:43:36;;;;;;;3.83;3.13;;;;;;;;;;5124193;27;20603;-62
2021/09/21 14:46:05;;;;;;;2.97;2.73;;;;;;;;;;5124000;27;20319;-62
2021/09/21 14:48:33;;;;;;;3.40;2.57;;;;;;;;;;5124306;27;20254;-62
2021/09/21 14:51:02;;;;;;;3.07;2.63;;;;;;;;;;5124387;27;20570;-62
2021/09/21 14:53:30;;;;;;;4.27;2.50;;;;;;;;;;5124763;27;20288;-61
2021/09/21 14:56:00;;;;;;;2.90;2.20;;;;;;;;;;5124776;27;20215;-61
2021/09/21 14:58:28;;;;;;;2.83;2.50;;;;;;;;;;5124346;27;20321;-62
2021/09/21 15:00:56;;;;;;;2.60;2.40;;;;;;;;;;5124247;27;20232;-62